createdAt,value
2022-11-30T00:00:08.784Z,99.04
2022-11-30T00:01:08.782Z,98.88
2022-11-30T00:02:08.852Z,98.94
2022-11-30T00:03:08.815Z,98.83
2022-11-30T00:04:08.736Z,99.09
2022-11-30T00:05:08.746Z,99.25
2022-11-30T00:06:08.721Z,98.74
2022-11-30T00:07:08.718Z,98.78
2022-11-30T00:08:08.713Z,98.68
2022-11-30T00:09:08.675Z,98.58
2022-11-30T00:10:08.695Z,99.45
2022-11-30T00:11:08.656Z,98.83
2022-11-30T00:12:08.645Z,99.04
2022-11-30T00:13:08.626Z,98.88
2022-11-30T00:14:08.626Z,98.58
2022-11-30T00:15:08.606Z,99.15
2022-11-30T00:16:08.629Z,99.15
2022-11-30T00:17:08.623Z,99.25
2022-11-30T00:18:08.568Z,98.68
2022-11-30T00:19:08.556Z,98.58
2022-11-30T00:20:08.553Z,98.07
2022-11-30T00:21:08.599Z,98.74
2022-11-30T00:22:08.527Z,99.76
2022-11-30T00:23:08.510Z,98.47
2022-11-30T00:24:08.508Z,98.27
2022-11-30T00:25:08.499Z,98.58
2022-11-30T00:26:08.480Z,98.27
2022-11-30T00:27:08.574Z,97.80
2022-11-30T00:28:08.472Z,98.27
2022-11-30T00:29:08.457Z,98.00
2022-11-30T00:30:08.438Z,97.44
2022-11-30T00:31:08.475Z,97.55
2022-11-30T00:32:08.449Z,98.07
2022-11-30T00:33:08.397Z,98.47
2022-11-30T00:34:08.389Z,97.96
2022-11-30T00:35:08.453Z,98.12
2022-11-30T00:36:08.397Z,99.04
2022-11-30T00:37:08.358Z,98.83
2022-11-30T00:38:08.368Z,99.04
2022-11-30T00:39:08.328Z,98.27
2022-11-30T00:40:08.332Z,98.27
2022-11-30T00:41:08.324Z,98.37
2022-11-30T00:42:08.309Z,98.33
2022-11-30T00:43:08.320Z,98.74
2022-11-30T00:44:08.280Z,98.83
2022-11-30T00:45:08.260Z,99.04
2022-11-30T00:46:08.307Z,98.74
2022-11-30T00:47:08.241Z,98.63
2022-11-30T00:48:08.230Z,98.53
2022-11-30T00:49:08.250Z,98.12
2022-11-30T00:50:08.221Z,98.79
2022-11-30T00:51:08.191Z,98.58
2022-11-30T00:52:08.190Z,99.51
2022-11-30T00:53:08.178Z,99.61
2022-11-30T00:54:08.220Z,99.10
2022-11-30T00:55:08.143Z,99.10
2022-11-30T00:56:08.143Z,99.10
2022-11-30T00:57:08.134Z,98.49
2022-11-30T00:58:08.119Z,99.10
2022-11-30T00:59:08.101Z,99.20
2022-11-30T01:00:08.116Z,98.83
2022-11-30T01:01:08.162Z,98.33
2022-11-30T01:02:08.158Z,98.63
2022-11-30T01:03:08.063Z,98.49
2022-11-30T01:04:08.052Z,98.90
2022-11-30T01:05:08.070Z,98.99
2022-11-30T01:06:08.030Z,98.58
2022-11-30T01:07:08.022Z,98.53
2022-11-30T01:08:08.006Z,98.74
2022-11-30T01:09:07.997Z,97.08
2022-11-30T01:10:07.972Z,96.78
2022-11-30T01:11:07.995Z,97.08
2022-11-30T01:12:07.955Z,96.26
2022-11-30T01:13:07.955Z,96.47
2022-11-30T01:14:07.953Z,96.94
2022-11-30T01:15:07.933Z,96.94
2022-11-30T01:16:07.963Z,97.45
2022-11-30T01:17:07.904Z,97.61
2022-11-30T01:18:07.883Z,98.02
2022-11-30T01:19:07.873Z,97.65
2022-11-30T01:20:07.865Z,97.45
2022-11-30T01:21:07.858Z,97.04
2022-11-30T01:22:07.854Z,96.88
2022-11-30T01:23:07.835Z,96.16
2022-11-30T01:24:07.825Z,96.53
2022-11-30T01:25:07.823Z,96.12
2022-11-30T01:26:07.801Z,96.32
2022-11-30T01:27:07.819Z,96.32
2022-11-30T01:28:07.774Z,95.75
2022-11-30T01:29:07.757Z,95.65
2022-11-30T01:30:07.775Z,95.07
2022-11-30T01:31:07.845Z,94.46
2022-11-30T01:32:07.728Z,95.24
2022-11-30T01:33:07.737Z,94.46
2022-11-30T01:34:07.708Z,94.46
2022-11-30T01:35:07.695Z,94.67
2022-11-30T01:36:07.683Z,95.14
2022-11-30T01:37:07.696Z,95.34
2022-11-30T01:38:07.701Z,94.05
2022-11-30T01:39:07.659Z,94.21
2022-11-30T01:40:07.642Z,95.29
2022-11-30T01:41:07.633Z,96.01
2022-11-30T01:42:07.617Z,96.01
2022-11-30T01:43:07.608Z,96.12
2022-11-30T01:44:07.610Z,96.16
2022-11-30T01:45:07.579Z,94.98
2022-11-30T01:46:07.608Z,94.36
2022-11-30T01:47:07.548Z,94.42
2022-11-30T01:48:07.549Z,95.20
2022-11-30T01:49:07.605Z,95.24
2022-11-30T01:50:07.523Z,96.12
2022-11-30T01:51:07.511Z,96.06
2022-11-30T01:52:07.508Z,94.83
2022-11-30T01:53:07.501Z,94.46
2022-11-30T01:54:07.480Z,93.23
2022-11-30T01:55:07.488Z,93.95
2022-11-30T01:56:07.456Z,93.64
2022-11-30T01:57:07.449Z,93.44
2022-11-30T01:58:07.450Z,92.82
2022-11-30T01:59:07.436Z,92.88
2022-11-30T02:00:07.409Z,94.11
2022-11-30T02:01:07.475Z,94.62
2022-11-30T02:02:07.431Z,94.11
2022-11-30T02:03:07.368Z,93.80
2022-11-30T02:04:07.358Z,93.60
2022-11-30T02:05:07.350Z,94.58
2022-11-30T02:06:07.350Z,94.89
2022-11-30T02:07:07.453Z,95.09
2022-11-30T02:08:07.425Z,95.87
2022-11-30T02:09:07.312Z,95.81
2022-11-30T02:10:07.299Z,95.76
2022-11-30T02:11:07.295Z,96.17
2022-11-30T02:12:07.273Z,96.48
2022-11-30T02:13:07.301Z,96.28
2022-11-30T02:14:07.241Z,95.50
2022-11-30T02:15:07.240Z,95.25
2022-11-30T02:16:07.312Z,96.48
2022-11-30T02:17:07.212Z,96.44
2022-11-30T02:18:07.207Z,97.56
2022-11-30T02:19:07.220Z,97.15
2022-11-30T02:20:07.182Z,97.25
2022-11-30T02:21:07.171Z,97.21
2022-11-30T02:22:07.185Z,98.03
2022-11-30T02:23:07.148Z,98.24
2022-11-30T02:24:07.172Z,98.24
2022-11-30T02:25:07.154Z,97.77
2022-11-30T02:26:07.104Z,97.97
2022-11-30T02:27:07.093Z,98.22
2022-11-30T02:28:07.086Z,97.09
2022-11-30T02:29:07.076Z,97.77
2022-11-30T02:30:07.091Z,97.15
2022-11-30T02:31:07.122Z,97.66
2022-11-30T02:32:07.043Z,97.92
2022-11-30T02:33:07.041Z,97.77
2022-11-30T02:34:07.055Z,97.56
2022-11-30T02:35:07.015Z,97.62
2022-11-30T02:36:07.033Z,98.13
2022-11-30T02:37:06.983Z,98.24
2022-11-30T02:38:06.965Z,98.54
2022-11-30T02:39:06.955Z,98.13
2022-11-30T02:40:06.944Z,98.95
2022-11-30T02:41:06.946Z,97.72
2022-11-30T02:42:06.956Z,98.44
2022-11-30T02:43:06.916Z,98.44
2022-11-30T02:44:06.904Z,97.62
2022-11-30T02:45:06.895Z,97.52
2022-11-30T02:46:06.903Z,97.92
2022-11-30T02:47:06.915Z,97.41
2022-11-30T02:48:06.856Z,97.66
2022-11-30T02:49:06.843Z,97.36
2022-11-30T02:50:06.838Z,97.36
2022-11-30T02:51:06.822Z,97.52
2022-11-30T02:52:06.818Z,97.62
2022-11-30T02:53:06.838Z,97.82
2022-11-30T02:54:06.787Z,98.39
2022-11-30T02:55:06.785Z,98.33
2022-11-30T02:56:06.775Z,98.13
2022-11-30T02:57:06.756Z,97.62
2022-11-30T02:58:06.761Z,97.41
2022-11-30T02:59:06.776Z,97.92
2022-11-30T03:00:06.716Z,97.82
2022-11-30T03:01:06.821Z,98.33
2022-11-30T03:02:06.705Z,98.33
2022-11-30T03:03:06.739Z,97.82
2022-11-30T03:04:06.713Z,97.21
2022-11-30T03:05:06.689Z,97.92
2022-11-30T03:06:06.666Z,97.92
2022-11-30T03:07:06.638Z,98.03
2022-11-30T03:08:06.636Z,97.72
2022-11-30T03:09:06.619Z,97.25
2022-11-30T03:10:06.639Z,97.36
2022-11-30T03:11:06.629Z,96.95
2022-11-30T03:12:06.589Z,97.50
2022-11-30T03:13:06.570Z,96.58
2022-11-30T03:14:06.577Z,96.64
2022-11-30T03:15:06.553Z,96.38
2022-11-30T03:16:06.619Z,95.97
2022-11-30T03:17:06.530Z,95.29
2022-11-30T03:18:06.525Z,95.46
2022-11-30T03:19:06.502Z,95.76
2022-11-30T03:20:06.506Z,95.66
2022-11-30T03:21:06.480Z,95.40
2022-11-30T03:22:06.489Z,96.07
2022-11-30T03:23:06.470Z,96.13
2022-11-30T03:24:06.452Z,96.84
2022-11-30T03:25:06.431Z,96.38
2022-11-30T03:26:06.431Z,97.40
2022-11-30T03:27:06.429Z,95.70
2022-11-30T03:28:06.425Z,95.09
2022-11-30T03:29:06.394Z,95.40
2022-11-30T03:30:06.380Z,95.09
2022-11-30T03:31:06.423Z,95.25
2022-11-30T03:32:06.350Z,95.56
2022-11-30T03:33:06.383Z,95.66
2022-11-30T03:34:06.331Z,95.97
2022-11-30T03:35:06.322Z,96.17
2022-11-30T03:36:06.321Z,96.44
2022-11-30T03:37:06.302Z,96.64
2022-11-30T03:38:06.293Z,97.00
2022-11-30T03:39:06.312Z,97.77
2022-11-30T03:40:06.265Z,96.95
2022-11-30T03:41:06.243Z,97.52
2022-11-30T03:42:06.243Z,97.15
2022-11-30T03:43:06.229Z,97.25
2022-11-30T03:44:06.245Z,97.82
2022-11-30T03:45:06.241Z,97.52
2022-11-30T03:46:06.217Z,98.44
2022-11-30T03:47:06.216Z,97.66
2022-11-30T03:48:06.175Z,98.03
2022-11-30T03:49:06.153Z,98.13
2022-11-30T03:50:06.152Z,98.44
2022-11-30T03:51:06.176Z,97.82
2022-11-30T03:52:06.135Z,97.97
2022-11-30T03:53:06.113Z,98.28
2022-11-30T03:54:06.103Z,98.13
2022-11-30T03:55:06.093Z,98.13
2022-11-30T03:56:06.089Z,97.98
2022-11-30T03:57:06.133Z,98.29
2022-11-30T03:58:06.055Z,98.39
2022-11-30T03:59:06.053Z,98.29
2022-11-30T04:00:06.034Z,98.24
2022-11-30T04:01:06.039Z,98.54
2022-11-30T04:02:06.093Z,98.44
2022-11-30T04:03:06.072Z,98.70
2022-11-30T04:04:05.997Z,98.54
2022-11-30T04:05:05.979Z,98.24
2022-11-30T04:06:05.976Z,98.13
2022-11-30T04:07:05.955Z,98.03
2022-11-30T04:08:05.937Z,97.92
2022-11-30T04:09:05.977Z,98.79
2022-11-30T04:10:08.686Z,97.36
2022-11-30T04:11:05.916Z,97.97
2022-11-30T04:12:05.905Z,98.33
2022-11-30T04:13:05.888Z,98.24
2022-11-30T04:14:05.895Z,98.44
2022-11-30T04:15:05.867Z,98.13
2022-11-30T04:16:05.898Z,98.95
2022-11-30T04:17:05.837Z,98.49
2022-11-30T04:18:05.827Z,98.85
2022-11-30T04:19:05.830Z,98.65
2022-11-30T04:20:05.847Z,98.44
2022-11-30T04:21:05.795Z,98.54
2022-11-30T04:22:05.777Z,99.66
2022-11-30T04:23:05.775Z,97.97
2022-11-30T04:24:05.766Z,97.77
2022-11-30T04:25:05.752Z,97.87
2022-11-30T04:26:05.775Z,97.92
2022-11-30T04:27:05.737Z,98.74
2022-11-30T04:28:05.732Z,98.13
2022-11-30T04:29:05.807Z,98.03
2022-11-30T04:30:05.689Z,98.33
2022-11-30T04:31:05.712Z,98.24
2022-11-30T04:32:05.709Z,98.24
2022-11-30T04:33:05.672Z,98.54
2022-11-30T04:34:05.642Z,98.54
2022-11-30T04:35:05.639Z,98.74
2022-11-30T04:36:05.622Z,98.60
2022-11-30T04:37:05.621Z,98.85
2022-11-30T04:38:05.629Z,98.39
2022-11-30T04:39:05.598Z,98.65
2022-11-30T04:40:05.580Z,98.60
2022-11-30T04:41:05.571Z,98.60
2022-11-30T04:42:05.550Z,99.01
2022-11-30T04:43:05.568Z,98.70
2022-11-30T04:44:05.531Z,98.70
2022-11-30T04:45:05.519Z,98.65
2022-11-30T04:46:05.512Z,98.44
2022-11-30T04:47:05.500Z,98.60
2022-11-30T04:48:05.499Z,98.70
2022-11-30T04:49:05.509Z,99.01
2022-11-30T04:50:05.480Z,98.90
2022-11-30T04:51:05.462Z,98.90
2022-11-30T04:52:05.451Z,99.11
2022-11-30T04:53:05.441Z,98.74
2022-11-30T04:54:05.420Z,99.26
2022-11-30T04:55:05.459Z,98.38
2022-11-30T04:56:05.394Z,98.49
2022-11-30T04:57:05.381Z,98.18
2022-11-30T04:58:05.376Z,97.56
2022-11-30T04:59:05.353Z,97.36
2022-11-30T05:00:05.399Z,97.66
2022-11-30T05:01:05.342Z,98.69
2022-11-30T05:02:05.393Z,97.97
2022-11-30T05:03:05.317Z,97.97
2022-11-30T05:04:05.341Z,97.97
2022-11-30T05:05:05.409Z,98.49
2022-11-30T05:06:05.439Z,98.58
2022-11-30T05:07:05.312Z,98.18
2022-11-30T05:08:05.315Z,97.66
2022-11-30T05:09:05.258Z,97.97
2022-11-30T05:10:05.281Z,97.97
2022-11-30T05:11:05.251Z,97.87
2022-11-30T05:12:05.254Z,98.18
2022-11-30T05:13:05.225Z,97.87
2022-11-30T05:14:05.212Z,98.58
2022-11-30T05:15:05.224Z,97.87
2022-11-30T05:16:05.253Z,97.97
2022-11-30T05:17:05.217Z,97.87
2022-11-30T05:18:05.166Z,98.12
2022-11-30T05:19:05.174Z,97.40
2022-11-30T05:20:05.125Z,98.07
2022-11-30T05:21:05.110Z,97.36
2022-11-30T05:22:05.097Z,97.66
2022-11-30T05:23:05.305Z,98.03
2022-11-30T05:24:05.084Z,98.07
2022-11-30T05:25:05.070Z,98.18
2022-11-30T05:26:05.062Z,98.58
2022-11-30T05:27:09.170Z,97.87
2022-11-30T05:28:06.067Z,97.77
2022-11-30T05:29:05.057Z,98.18
2022-11-30T05:30:05.009Z,97.87
2022-11-30T05:31:05.077Z,97.87
2022-11-30T05:32:04.985Z,97.56
2022-11-30T05:33:04.975Z,97.52
2022-11-30T05:34:04.977Z,97.92
2022-11-30T05:35:04.980Z,98.74
2022-11-30T05:36:10.334Z,97.92
2022-11-30T05:37:05.932Z,97.92
2022-11-30T05:38:04.923Z,98.13
2022-11-30T05:39:04.899Z,98.24
2022-11-30T05:40:04.907Z,97.92
2022-11-30T05:41:04.897Z,97.97
2022-11-30T05:42:04.882Z,98.69
2022-11-30T05:43:04.856Z,97.05
2022-11-30T05:44:04.848Z,97.15
2022-11-30T05:45:04.831Z,97.31
2022-11-30T05:46:04.827Z,97.41
2022-11-30T05:47:04.953Z,97.82
2022-11-30T05:48:04.796Z,97.92
2022-11-30T05:49:04.788Z,97.82
2022-11-30T05:50:04.785Z,97.92
2022-11-30T05:51:04.773Z,98.33
2022-11-30T05:52:04.759Z,98.13
2022-11-30T05:53:04.768Z,99.05
2022-11-30T05:54:04.731Z,97.41
2022-11-30T05:55:04.719Z,97.21
2022-11-30T05:56:04.718Z,97.62
2022-11-30T05:57:04.703Z,97.41
2022-11-30T05:58:04.693Z,97.62
2022-11-30T05:59:04.694Z,97.62
2022-11-30T06:00:04.660Z,97.41
2022-11-30T06:01:04.651Z,96.74
2022-11-30T06:02:04.730Z,97.56
2022-11-30T06:03:04.753Z,97.52
2022-11-30T06:04:07.464Z,97.82
2022-11-30T06:05:04.619Z,98.08
2022-11-30T06:06:04.652Z,98.60
2022-11-30T06:07:05.536Z,98.08
2022-11-30T06:08:05.524Z,98.60
2022-11-30T06:09:04.560Z,98.39
2022-11-30T06:10:04.591Z,98.49
2022-11-30T06:11:04.572Z,98.70
2022-11-30T06:12:04.535Z,98.49
2022-11-30T06:13:04.512Z,98.60
2022-11-30T06:14:04.504Z,98.65
2022-11-30T06:15:04.509Z,98.29
2022-11-30T06:16:04.566Z,98.80
2022-11-30T06:17:04.480Z,98.29
2022-11-30T06:18:04.461Z,98.39
2022-11-30T06:19:04.451Z,97.92
2022-11-30T06:20:04.447Z,98.19
2022-11-30T06:21:04.471Z,98.49
2022-11-30T06:22:04.452Z,98.49
2022-11-30T06:23:04.392Z,98.49
2022-11-30T06:24:04.458Z,98.70
2022-11-30T06:25:04.382Z,98.49
2022-11-30T06:26:04.364Z,98.49
2022-11-30T06:27:04.384Z,98.60
2022-11-30T06:28:04.343Z,98.49
2022-11-30T06:29:04.344Z,98.80
2022-11-30T06:30:04.334Z,98.70
2022-11-30T06:31:04.315Z,98.60
2022-11-30T06:32:05.050Z,98.49
2022-11-30T06:33:04.320Z,98.29
2022-11-30T06:34:04.293Z,98.29
2022-11-30T06:35:04.317Z,98.19
2022-11-30T06:36:04.256Z,99.21
2022-11-30T06:37:04.243Z,98.49
2022-11-30T06:38:04.243Z,97.92
2022-11-30T06:39:04.246Z,97.92
2022-11-30T06:40:07.037Z,98.08
2022-11-30T06:41:04.207Z,98.19
2022-11-30T06:42:04.187Z,98.08
2022-11-30T06:43:04.174Z,97.98
2022-11-30T06:44:04.166Z,97.98
2022-11-30T06:45:04.188Z,98.39
2022-11-30T06:46:04.219Z,98.29
2022-11-30T06:47:04.125Z,98.29
2022-11-30T06:48:04.116Z,98.19
2022-11-30T06:49:04.138Z,97.62
2022-11-30T06:50:04.095Z,98.03
2022-11-30T06:51:04.097Z,98.08
2022-11-30T06:52:04.084Z,97.78
2022-11-30T06:53:04.059Z,98.39
2022-11-30T06:54:04.060Z,97.67
2022-11-30T06:55:04.041Z,97.98
2022-11-30T06:56:09.431Z,98.39
2022-11-30T06:57:05.093Z,97.78
2022-11-30T06:58:04.005Z,97.98
2022-11-30T06:59:03.995Z,98.08
2022-11-30T07:00:03.977Z,98.08
2022-11-30T07:01:03.983Z,98.19
2022-11-30T07:02:08.846Z,98.39
2022-11-30T07:03:04.946Z,98.29
2022-11-30T07:04:03.966Z,98.49
2022-11-30T07:05:03.928Z,98.70
2022-11-30T07:06:03.931Z,98.60
2022-11-30T07:07:03.917Z,98.39
2022-11-30T07:08:03.911Z,98.39
2022-11-30T07:09:03.878Z,98.19
2022-11-30T07:10:03.857Z,98.29
2022-11-30T07:11:03.868Z,98.60
2022-11-30T07:12:03.837Z,98.55
2022-11-30T07:13:03.838Z,98.60
2022-11-30T07:14:03.847Z,98.70
2022-11-30T07:15:03.826Z,98.29
2022-11-30T07:16:03.842Z,97.92
2022-11-30T07:17:03.789Z,97.72
2022-11-30T07:18:03.771Z,98.03
2022-11-30T07:19:03.777Z,97.62
2022-11-30T07:20:03.781Z,97.82
2022-11-30T07:21:03.746Z,97.98
2022-11-30T07:22:03.730Z,98.80
2022-11-30T07:23:03.718Z,97.98
2022-11-30T07:24:03.701Z,97.31
2022-11-30T07:25:03.692Z,98.29
2022-11-30T07:26:03.791Z,97.98
2022-11-30T07:27:03.681Z,98.08
2022-11-30T07:28:03.680Z,98.08
2022-11-30T07:29:03.645Z,98.08
2022-11-30T07:30:03.640Z,97.88
2022-11-30T07:31:03.653Z,98.19
2022-11-30T07:32:03.728Z,97.98
2022-11-30T07:33:03.600Z,97.67
2022-11-30T07:34:03.602Z,97.37
2022-11-30T07:35:03.592Z,97.82
2022-11-30T07:36:03.566Z,97.00
2022-11-30T07:37:03.583Z,96.49
2022-11-30T07:38:09.484Z,96.80
2022-11-30T07:39:04.557Z,96.70
2022-11-30T07:40:03.536Z,97.21
2022-11-30T07:41:03.541Z,97.21
2022-11-30T07:42:03.512Z,97.06
2022-11-30T07:43:03.525Z,96.86
2022-11-30T07:44:03.474Z,96.96
2022-11-30T07:45:03.465Z,97.06
2022-11-30T07:46:03.611Z,96.39
2022-11-30T07:47:03.442Z,96.96
2022-11-30T07:48:03.423Z,97.16
2022-11-30T07:49:03.457Z,97.27
2022-11-30T07:50:03.547Z,98.04
2022-11-30T07:51:03.393Z,96.96
2022-11-30T07:52:03.392Z,97.33
2022-11-30T07:53:03.383Z,97.74
2022-11-30T07:54:03.364Z,98.14
2022-11-30T07:55:03.388Z,97.47
2022-11-30T07:56:03.356Z,97.67
2022-11-30T07:57:03.346Z,97.27
2022-11-30T07:58:03.328Z,96.86
2022-11-30T07:59:03.305Z,97.47
2022-11-30T08:00:03.292Z,96.75
2022-11-30T08:01:03.393Z,96.86
2022-11-30T08:02:03.350Z,96.34
2022-11-30T08:03:03.260Z,97.12
2022-11-30T08:04:03.246Z,97.22
2022-11-30T08:05:03.305Z,97.37
2022-11-30T08:06:03.275Z,97.16
2022-11-30T08:07:03.207Z,97.37
2022-11-30T08:08:03.303Z,97.74
2022-11-30T08:09:03.202Z,97.33
2022-11-30T08:10:03.184Z,97.99
2022-11-30T08:11:03.158Z,97.63
2022-11-30T08:12:03.176Z,97.94
2022-11-30T08:13:03.150Z,97.16
2022-11-30T08:14:03.209Z,97.57
2022-11-30T08:15:20.172Z,96.86
2022-11-30T08:16:04.125Z,97.57
2022-11-30T08:17:03.150Z,97.53
2022-11-30T08:18:03.125Z,98.10
2022-11-30T08:19:03.076Z,96.81
2022-11-30T08:20:03.067Z,97.63
2022-11-30T08:21:03.061Z,96.92
2022-11-30T08:22:03.077Z,98.04
2022-11-30T08:23:03.028Z,97.53
2022-11-30T08:24:03.140Z,97.63
2022-11-30T08:25:03.000Z,97.33
2022-11-30T08:26:02.992Z,97.22
2022-11-30T08:27:02.976Z,97.58
2022-11-30T08:28:02.976Z,97.12
2022-11-30T08:29:02.966Z,96.81
2022-11-30T08:30:02.977Z,97.74
2022-11-30T08:31:02.985Z,97.79
2022-11-30T08:32:02.919Z,97.49
2022-11-30T08:33:02.913Z,97.99
2022-11-30T08:34:02.902Z,98.20
2022-11-30T08:35:02.959Z,97.94
2022-11-30T08:36:02.924Z,97.16
2022-11-30T08:37:02.871Z,97.22
2022-11-30T08:38:02.862Z,97.02
2022-11-30T08:39:02.850Z,97.63
2022-11-30T08:40:02.831Z,96.10
2022-11-30T08:41:02.856Z,97.17
2022-11-30T08:42:02.831Z,97.74
2022-11-30T08:43:02.803Z,97.33
2022-11-30T08:44:02.790Z,97.58
2022-11-30T08:45:03.039Z,97.38
2022-11-30T08:46:04.273Z,97.99
2022-11-30T08:47:03.765Z,97.28
2022-11-30T08:48:02.733Z,97.13
2022-11-30T08:49:20.282Z,98.36
2022-11-30T08:50:03.726Z,98.05
2022-11-30T08:51:02.713Z,97.85
2022-11-30T08:52:18.407Z,97.64
2022-11-30T08:53:06.350Z,98.15
2022-11-30T08:54:02.666Z,97.85
2022-11-30T08:55:02.654Z,97.64
2022-11-30T08:56:02.655Z,97.90
2022-11-30T08:57:02.664Z,97.95
2022-11-30T08:58:02.619Z,97.95
2022-11-30T08:59:02.617Z,97.90
2022-11-30T09:00:02.612Z,98.21
2022-11-30T09:01:02.594Z,97.80
2022-11-30T09:02:02.562Z,98.52
2022-11-30T09:03:02.632Z,97.44
2022-11-30T09:04:02.563Z,97.54
2022-11-30T09:05:02.544Z,97.89
2022-11-30T09:06:02.525Z,97.54
2022-11-30T09:07:02.578Z,97.85
2022-11-30T09:08:02.516Z,98.15
2022-11-30T09:09:02.514Z,98.41
2022-11-30T09:10:02.475Z,98.11
2022-11-30T09:11:02.466Z,98.31
2022-11-30T09:12:02.461Z,98.36
2022-11-30T09:13:02.447Z,98.30
2022-11-30T09:14:02.425Z,97.58
2022-11-30T09:15:02.646Z,97.99
2022-11-30T09:16:02.503Z,97.49
2022-11-30T09:17:02.395Z,97.58
2022-11-30T09:18:02.386Z,97.49
2022-11-30T09:19:02.375Z,97.74
2022-11-30T09:20:02.356Z,97.54
2022-11-30T09:21:02.386Z,98.31
2022-11-30T09:22:02.337Z,98.05
2022-11-30T09:23:02.337Z,98.15
2022-11-30T09:24:02.307Z,98.11
2022-11-30T09:25:02.297Z,97.49
2022-11-30T09:26:02.287Z,97.74
2022-11-30T09:27:02.320Z,98.72
2022-11-30T09:28:02.257Z,98.00
2022-11-30T09:29:02.259Z,98.21
2022-11-30T09:30:02.245Z,98.47
2022-11-30T09:31:02.281Z,98.16
2022-11-30T09:32:02.207Z,98.57
2022-11-30T09:33:02.229Z,98.31
2022-11-30T09:34:02.192Z,98.27
2022-11-30T09:35:02.180Z,98.27
2022-11-30T09:36:02.171Z,98.57
2022-11-30T09:37:02.189Z,98.36
2022-11-30T09:38:02.149Z,97.90
2022-11-30T09:39:02.138Z,98.25
2022-11-30T09:40:02.121Z,98.41
2022-11-30T09:41:02.109Z,98.46
2022-11-30T09:42:02.106Z,97.85
2022-11-30T09:43:02.169Z,98.46
2022-11-30T09:44:02.069Z,98.11
2022-11-30T09:45:02.072Z,98.41
2022-11-30T09:46:02.092Z,97.80
2022-11-30T09:47:02.053Z,97.80
2022-11-30T09:48:02.062Z,97.54
2022-11-30T09:49:02.019Z,97.80
2022-11-30T09:50:02.003Z,98.57
2022-11-30T09:51:01.999Z,97.80
2022-11-30T09:52:01.980Z,98.31
2022-11-30T09:53:01.970Z,97.85
2022-11-30T09:54:01.987Z,98.52
2022-11-30T09:55:01.942Z,97.80
2022-11-30T09:56:01.944Z,98.27
2022-11-30T09:57:01.922Z,97.90
2022-11-30T09:58:01.921Z,98.47
2022-11-30T09:59:01.922Z,98.47
2022-11-30T10:00:01.902Z,98.68
2022-11-30T10:01:06.692Z,98.77
2022-11-30T10:02:02.934Z,98.47
2022-11-30T10:03:02.049Z,98.68
2022-11-30T10:04:01.851Z,98.68
2022-11-30T10:05:01.889Z,98.68
2022-11-30T10:06:01.813Z,98.68
2022-11-30T10:07:01.818Z,98.63
2022-11-30T10:08:01.835Z,98.68
2022-11-30T10:09:01.796Z,98.63
2022-11-30T10:10:30.477Z,98.61
2022-11-30T10:11:02.788Z,98.52
2022-11-30T10:12:01.751Z,98.52
2022-11-30T10:13:01.766Z,98.52
2022-11-30T10:14:01.737Z,98.16
2022-11-30T10:15:01.718Z,98.83
2022-11-30T10:16:01.746Z,98.63
2022-11-30T10:17:01.696Z,98.83
2022-11-30T10:18:01.691Z,98.83
2022-11-30T10:19:01.665Z,98.93
2022-11-30T10:20:01.679Z,98.61
2022-11-30T10:21:01.646Z,97.60
2022-11-30T10:22:01.654Z,98.72
2022-11-30T10:23:01.630Z,98.41
2022-11-30T10:24:01.607Z,98.11
2022-11-30T10:25:01.773Z,98.21
2022-11-30T10:26:01.607Z,98.41
2022-11-30T10:27:01.596Z,98.47
2022-11-30T10:28:12.647Z,98.73
2022-11-30T10:29:02.587Z,98.83
2022-11-30T10:30:01.543Z,99.24
2022-11-30T10:31:01.606Z,98.77
2022-11-30T10:32:01.520Z,98.73
2022-11-30T10:33:01.517Z,99.14
2022-11-30T10:34:01.487Z,98.99
2022-11-30T10:35:01.494Z,99.24
2022-11-30T10:36:01.481Z,99.04
2022-11-30T10:37:01.459Z,98.47
2022-11-30T10:38:01.467Z,98.83
2022-11-30T10:39:01.441Z,98.98
2022-11-30T10:40:01.447Z,98.98
2022-11-30T10:41:01.414Z,98.77
2022-11-30T10:42:01.433Z,98.57
2022-11-30T10:43:01.398Z,98.32
2022-11-30T10:44:01.401Z,98.73
2022-11-30T10:45:01.374Z,98.11
2022-11-30T10:46:01.411Z,98.73
2022-11-30T10:47:01.413Z,98.58
2022-11-30T10:48:01.334Z,98.89
2022-11-30T10:49:01.350Z,98.79
2022-11-30T10:50:01.309Z,98.32
2022-11-30T10:51:01.302Z,98.63
2022-11-30T10:52:01.291Z,98.57
2022-11-30T10:53:01.270Z,98.68
2022-11-30T10:54:01.260Z,98.36
2022-11-30T10:55:04.956Z,98.15
2022-11-30T10:56:01.264Z,98.15
2022-11-30T10:57:01.230Z,98.21
2022-11-30T10:58:01.220Z,97.74
2022-11-30T10:59:01.201Z,97.49
2022-11-30T11:00:01.200Z,97.49
2022-11-30T11:01:01.210Z,97.17
2022-11-30T11:02:01.255Z,97.38
2022-11-30T11:03:01.198Z,97.28
2022-11-30T11:04:01.196Z,97.08
2022-11-30T11:05:01.140Z,96.77
2022-11-30T11:06:01.123Z,97.49
2022-11-30T11:07:01.185Z,97.38
2022-11-30T11:08:06.377Z,97.38
2022-11-30T11:09:02.082Z,97.28
2022-11-30T11:10:01.083Z,97.28
2022-11-30T11:11:01.066Z,97.49
2022-11-30T11:12:01.061Z,97.02
2022-11-30T11:13:01.112Z,96.41
2022-11-30T11:14:01.039Z,96.92
2022-11-30T11:15:01.021Z,97.19
2022-11-30T11:16:01.106Z,97.70
2022-11-30T11:17:00.994Z,97.80
2022-11-30T11:18:00.995Z,98.36
2022-11-30T11:19:00.997Z,99.54
2022-11-30T11:20:00.957Z,97.86
2022-11-30T11:21:04.349Z,98.36
2022-11-30T11:22:01.944Z,98.00
2022-11-30T11:23:00.925Z,97.80
2022-11-30T11:24:01.014Z,98.31
2022-11-30T11:25:00.946Z,98.52
2022-11-30T11:26:00.910Z,98.36
2022-11-30T11:27:00.878Z,97.80
2022-11-30T11:28:00.880Z,98.83
2022-11-30T11:29:00.854Z,98.43
2022-11-30T11:30:00.847Z,98.93
2022-11-30T11:31:00.896Z,98.32
2022-11-30T11:32:00.856Z,98.63
2022-11-30T11:33:00.901Z,98.93
2022-11-30T11:34:00.819Z,98.77
2022-11-30T11:35:00.787Z,99.24
2022-11-30T11:36:00.807Z,98.83
2022-11-30T11:37:00.782Z,98.43
2022-11-30T11:38:00.767Z,98.73
2022-11-30T11:39:00.773Z,98.73
2022-11-30T11:40:00.731Z,98.77
2022-11-30T11:41:00.712Z,98.63
2022-11-30T11:42:00.728Z,98.89
2022-11-30T11:43:00.694Z,98.79
2022-11-30T11:44:00.689Z,98.58
2022-11-30T11:45:00.670Z,98.73
2022-11-30T11:46:00.684Z,98.93
2022-11-30T11:47:00.687Z,98.68
2022-11-30T11:48:00.643Z,98.88
2022-11-30T11:49:00.641Z,98.88
2022-11-30T11:50:00.649Z,98.77
2022-11-30T11:51:08.332Z,98.83
2022-11-30T11:52:01.676Z,99.04
2022-11-30T11:53:00.629Z,98.73
2022-11-30T11:54:00.656Z,98.73
2022-11-30T11:55:00.560Z,98.77
2022-11-30T11:56:00.549Z,99.04
2022-11-30T11:57:00.529Z,99.04
2022-11-30T11:58:00.518Z,98.77
2022-11-30T11:59:00.544Z,98.83
2022-11-30T12:00:00.500Z,98.83
2022-11-30T12:01:23.773Z,98.63
2022-11-30T12:02:01.473Z,98.73
2022-11-30T12:03:00.494Z,98.93
2022-11-30T12:04:00.485Z,98.63
2022-11-30T12:05:00.454Z,98.83
2022-11-30T12:06:00.441Z,98.79
2022-11-30T12:07:00.422Z,99.09
2022-11-30T12:08:00.436Z,98.89
2022-11-30T12:09:00.391Z,99.04
2022-11-30T12:10:00.401Z,99.04
2022-11-30T12:11:00.372Z,99.04
2022-11-30T12:12:00.361Z,99.04
2022-11-30T12:13:00.355Z,98.74
2022-11-30T12:14:00.351Z,98.79
2022-11-30T12:15:00.397Z,98.89
2022-11-30T12:16:00.462Z,98.89
2022-11-30T12:17:00.308Z,99.19
2022-11-30T12:18:00.291Z,99.09
2022-11-30T12:19:00.275Z,98.93
2022-11-30T12:20:00.272Z,98.79
2022-11-30T12:21:00.273Z,99.14
2022-11-30T12:22:00.245Z,98.88
2022-11-30T12:23:00.232Z,98.88
2022-11-30T12:24:00.223Z,98.93
2022-11-30T12:25:05.634Z,99.04
2022-11-30T12:26:01.226Z,98.83
2022-11-30T12:27:00.196Z,98.83
2022-11-30T12:28:00.188Z,98.89
2022-11-30T12:29:00.167Z,98.89
2022-11-30T12:30:00.180Z,98.84
2022-11-30T12:31:00.173Z,98.84
2022-11-30T12:32:00.177Z,98.84
2022-11-30T12:33:00.125Z,98.94
2022-11-30T12:34:00.122Z,98.94
2022-11-30T12:35:00.095Z,98.79
2022-11-30T12:36:00.081Z,98.94
2022-11-30T12:37:00.096Z,98.84
2022-11-30T12:38:00.080Z,98.99
2022-11-30T12:39:00.048Z,98.94
2022-11-30T12:40:00.041Z,98.84
2022-11-30T12:41:00.026Z,98.74
2022-11-30T12:42:00.014Z,98.64
2022-11-30T12:43:00.068Z,99.04
2022-11-30T12:44:00.030Z,98.84
2022-11-30T12:44:59.977Z,98.69
2022-11-30T12:45:59.972Z,98.64
2022-11-30T12:46:59.980Z,98.94
2022-11-30T12:47:59.946Z,98.84
2022-11-30T12:48:59.991Z,98.79
2022-11-30T12:49:59.920Z,98.90
2022-11-30T12:50:59.912Z,98.69
2022-11-30T12:51:59.906Z,98.90